Time;durP1;ratioP1;P1;durP2;ratioP2;P2;SDS_P1;SDS_P2;PMS_P1;PMS_P2;Temp;Humidity;BMP_temperature;BMP_pressure;BME280_temperature;BME280_humidity;BME280_pressure;Samples;Min_cycle;Max_cycle;Signal;HPM_P1;HPM_P2
2022/11/26 00:00:56;;;;;;;4.80;4.37;;;;;;;4.61;61.71;95371.16;4932936;29;20248;-69
2022/11/26 00:03:22;;;;;;;4.73;4.33;;;;;;;4.66;61.87;95382.09;4932746;29;20196;-68
2022/11/26 00:05:50;;;;;;;4.97;4.50;;;;;;;4.71;61.68;95373.97;4929227;29;20486;-69
2022/11/26 00:08:19;;;;;;;5.70;4.50;;;;;;;4.62;61.88;95388.44;4935538;29;20201;-69
2022/11/26 00:10:46;;;;;;;5.17;4.70;;;;;;;4.58;62.02;95380.03;4932099;29;20224;-69
2022/11/26 00:13:17;;;;;;;5.00;4.50;;;;;;;4.48;62.60;95376.38;4946546;29;20255;-69
2022/11/26 00:15:42;;;;;;;6.00;5.40;;;;;;;4.51;62.57;95383.97;4933479;29;20189;-69
2022/11/26 00:18:08;;;;;;;6.73;5.20;;;;;;;4.57;62.53;95382.72;4929173;29;20192;-69
2022/11/26 00:20:33;;;;;;;7.30;5.57;;;;;;;4.59;62.61;95386.88;4932602;29;20204;-69
2022/11/26 00:23:01;;;;;;;6.23;5.63;;;;;;;4.45;62.54;95362.75;4933526;29;20717;-69
2022/11/26 00:25:49;;;;;;;6.37;5.67;;;;;;;4.45;63.23;95367.97;4932856;29;20236;-70
2022/11/26 00:28:30;;;;;;;6.63;5.30;;;;;;;4.56;62.77;95381.06;4947989;29;20211;-69
2022/11/26 00:30:58;;;;;;;7.63;6.63;;;;;;;4.56;63.01;95383.69;4945435;29;20197;-69
2022/11/26 00:33:24;;;;;;;7.30;6.50;;;;;;;4.44;63.00;95377.56;5003421;28;20325;-69
2022/11/26 00:35:54;;;;;;;8.00;7.20;;;;;;;4.37;63.65;95376.31;5026006;28;20187;-69
2022/11/26 00:38:21;;;;;;;11.43;9.77;;;;;;;4.25;63.68;95377.13;5020674;28;20187;-68
2022/11/26 00:40:46;;;;;;;11.77;10.57;;;;;;;4.36;63.05;95378.06;5017873;28;20248;-71
2022/11/26 00:43:14;;;;;;;13.07;11.40;;;;;;;4.35;63.42;95383.38;5021316;28;20297;-69
2022/11/26 00:45:39;;;;;;;15.57;12.33;;;;;;;4.19;63.45;95383.59;5024413;28;20300;-69
2022/11/26 00:48:05;;;;;;;13.43;11.17;;;;;;;4.08;64.04;95391.28;5018699;28;20269;-69
2022/11/26 00:50:36;;;;;;;12.80;11.50;;;;;;;3.96;64.46;95379.94;5019404;28;20198;-69
2022/11/26 00:53:03;;;;;;;14.17;11.77;;;;;;;3.90;64.73;95382.94;5025998;28;20186;-69
2022/11/26 00:55:37;;;;;;;14.67;12.83;;;;;;;3.86;65.21;95397.09;5020429;28;20182;-69
2022/11/26 00:58:04;;;;;;;14.37;11.83;;;;;;;3.82;65.42;95400.81;5025726;28;20185;-69
2022/11/26 01:00:32;;;;;;;16.73;14.17;;;;;;;3.81;65.31;95405.19;5020426;28;20249;-69
2022/11/26 01:02:58;;;;;;;19.00;14.73;;;;;;;3.64;65.77;95397.69;5025136;28;20258;-69
2022/11/26 01:05:28;;;;;;;16.93;14.93;;;;;;;3.75;65.35;95403.00;5025639;28;20325;-69
2022/11/26 01:07:57;;;;;;;19.10;15.80;;;;;;;3.66;65.79;95395.78;5020905;28;20200;-70
2022/11/26 01:10:25;;;;;;;19.27;16.20;;;;;;;3.51;65.48;95393.28;5015418;28;20600;-69
2022/11/26 01:12:52;;;;;;;19.80;16.90;;;;;;;3.38;66.21;95401.97;5022787;28;20182;-69
2022/11/26 01:15:20;;;;;;;17.87;16.00;;;;;;;3.28;66.48;95399.13;5021403;28;20186;-69
2022/11/26 01:17:46;;;;;;;18.97;16.17;;;;;;;3.25;66.58;95409.72;5021406;28;20202;-69
2022/11/26 01:20:23;;;;;;;18.73;16.00;;;;;;;3.29;67.04;95426.78;5023602;28;20194;-69
2022/11/26 01:22:50;;;;;;;19.87;16.57;;;;;;;3.37;66.85;95421.06;5034323;28;20190;-69
2022/11/26 01:25:15;;;;;;;18.40;15.63;;;;;;;3.29;67.21;95416.38;5021995;28;20230;-69
2022/11/26 01:27:41;;;;;;;16.90;15.00;;;;;;;3.22;67.33;95408.13;5022436;28;20194;-70
2022/11/26 01:30:20;;;;;;;17.67;15.77;;;;;;;3.26;67.35;95417.41;5022394;28;20193;-69
2022/11/26 01:32:47;;;;;;;18.00;15.80;;;;;;;3.12;67.49;95417.44;5020884;28;20186;-68
2022/11/26 01:35:13;;;;;;;18.23;16.33;;;;;;;3.18;67.74;95426.59;5000736;28;20227;-70
2022/11/26 01:37:39;;;;;;;17.50;15.27;;;;;;;3.18;67.50;95424.88;4996365;28;20191;-70
2022/11/26 01:40:37;;;;;;;18.77;15.60;;;;;;;3.13;67.71;95426.06;4998132;28;20281;-70
2022/11/26 01:43:14;;;;;;;22.43;15.83;;;;;;;3.13;67.83;95428.66;5014401;28;20266;-69
2022/11/26 01:45:39;;;;;;;16.03;14.33;;;;;;;3.10;67.86;95421.88;5013293;28;20225;-70
2022/11/26 01:48:32;;;;;;;15.33;13.10;;;;;;;3.25;67.63;95435.69;5006477;28;20275;-68
2022/11/26 01:51:06;;;;;;;13.47;11.57;;;;;;;3.36;67.62;95422.00;4998430;28;20230;-69
2022/11/26 01:53:49;;;;;;;13.93;11.57;;;;;;;3.38;68.06;95413.19;4995878;28;20195;-69
2022/11/26 01:56:36;;;;;;;13.00;11.60;;;;;;;3.46;67.93;95415.31;5002527;28;20278;-69
2022/11/26 01:59:20;;;;;;;12.23;10.87;;;;;;;3.32;68.17;95418.78;4999470;28;20306;-70
2022/11/26 02:01:47;;;;;;;14.27;11.00;;;;;;;3.19;69.12;95415.31;4993651;28;20187;-69
2022/11/26 02:04:20;;;;;;;11.70;10.50;;;;;;;3.23;69.08;95420.19;4999611;28;20735;-70
2022/11/26 02:06:48;;;;;;;10.87;9.70;;;;;;;3.40;69.01;95418.31;5000699;28;20190;-69
2022/11/26 02:09:14;;;;;;;10.80;9.77;;;;;;;3.49;68.85;95421.13;5008303;28;20317;-69
2022/11/26 02:11:40;;;;;;;10.77;9.60;;;;;;;3.53;68.61;95424.38;4999022;28;20182;-69
2022/11/26 02:14:27;;;;;;;11.53;10.37;;;;;;;3.50;68.77;95415.00;5007293;28;20175;-69
2022/11/26 02:17:00;;;;;;;11.90;9.97;;;;;;;3.43;68.65;95415.50;5001379;28;20214;-69
2022/11/26 02:19:48;;;;;;;11.77;10.43;;;;;;;3.39;69.01;95417.44;4998701;28;20191;-70
2022/11/26 02:22:36;;;;;;;10.63;9.03;;;;;;;3.42;68.86;95419.88;4999789;28;20192;-68
2022/11/26 02:25:18;;;;;;;10.53;9.47;;;;;;;3.43;69.35;95423.31;4999209;28;20543;-69
2022/11/26 02:27:52;;;;;;;11.60;9.97;;;;;;;3.62;68.55;95415.97;5003467;28;20190;-69
2022/11/26 02:30:18;;;;;;;10.60;9.50;;;;;;;3.49;68.86;95420.28;4996744;28;20194;-69
2022/11/26 02:32:49;;;;;;;12.57;9.67;;;;;;;3.46;69.05;95423.94;5019137;28;20195;-68
2022/11/26 02:35:23;;;;;;;13.60;10.77;;;;;;;3.43;69.39;95418.09;5019283;28;20227;-69
2022/11/26 02:38:04;;;;;;;13.57;12.00;;;;;;;3.46;68.84;95410.09;4998984;28;20192;-68
2022/11/26 02:40:30;;;;;;;14.83;11.63;;;;;;;3.32;68.60;95408.41;5000047;28;20187;-69
2022/11/26 02:42:55;;;;;;;14.10;11.33;;;;;;;3.29;68.18;95414.63;5006561;28;20202;-69
2022/11/26 02:45:35;;;;;;;13.23;10.63;;;;;;;3.15;68.42;95416.41;5019796;28;20306;-69
2022/11/26 02:48:04;;;;;;;16.63;10.90;;;;;;;3.07;68.51;95420.34;5003993;28;20238;-69
2022/11/26 02:50:53;;;;;;;14.33;12.57;;;;;;;2.93;68.54;95429.91;5001988;28;20187;-69
2022/11/26 02:53:21;;;;;;;12.63;10.87;;;;;;;2.98;68.44;95428.69;4985232;28;20191;-68
2022/11/26 02:56:00;;;;;;;13.60;10.93;;;;;;;2.88;68.73;95435.38;5002454;28;20179;-68
2022/11/26 02:58:26;;;;;;;14.13;11.93;;;;;;;2.76;69.02;95437.00;5002877;28;20198;-68
2022/11/26 03:00:55;;;;;;;14.33;11.87;;;;;;;2.85;69.02;95435.59;5013741;28;20211;-68
2022/11/26 03:03:26;;;;;;;12.77;11.37;;;;;;;2.82;68.79;95438.38;5014248;28;20186;-70
2022/11/26 03:06:00;;;;;;;13.20;11.23;;;;;;;2.76;68.99;95436.16;5016024;28;20289;-69
2022/11/26 03:08:26;;;;;;;13.30;11.83;;;;;;;2.68;68.80;95441.81;4985840;28;20191;-69
2022/11/26 03:10:51;;;;;;;12.13;10.83;;;;;;;2.73;68.83;95447.56;5002314;28;20186;-69
2022/11/26 03:13:19;;;;;;;14.67;11.20;;;;;;;2.76;68.94;95444.78;5018095;28;20197;-69
2022/11/26 03:15:45;;;;;;;13.17;11.63;;;;;;;2.70;69.35;95444.31;5021006;28;20314;-69
2022/11/26 03:18:10;;;;;;;13.87;11.57;;;;;;;2.76;69.14;95452.56;5000392;28;20195;-69
2022/11/26 03:20:35;;;;;;;13.77;11.07;;;;;;;2.80;68.76;95459.22;4997212;28;20209;-69
2022/11/26 03:23:01;;;;;;;12.63;10.97;;;;;;;2.75;68.64;95457.84;5005154;28;20265;-69
2022/11/26 03:25:26;;;;;;;13.63;10.93;;;;;;;2.66;68.81;95461.84;5002072;28;20203;-69
2022/11/26 03:27:52;;;;;;;12.70;10.70;;;;;;;2.56;68.83;95465.91;5003974;28;20187;-68
2022/11/26 03:30:17;;;;;;;13.50;10.53;;;;;;;2.53;68.92;95466.09;4999891;28;20195;-68
2022/11/26 03:32:43;;;;;;;13.07;11.07;;;;;;;2.55;69.16;95477.25;5002127;28;20190;-68
2022/11/26 03:35:09;;;;;;;13.57;10.20;;;;;;;2.57;68.99;95485.78;5000977;28;20240;-68
2022/11/26 03:37:35;;;;;;;12.80;11.50;;;;;;;2.60;68.88;95483.81;5006175;28;20196;-68
2022/11/26 03:40:00;;;;;;;11.10;10.00;;;;;;;2.45;69.20;95487.31;5002394;28;20179;-69
2022/11/26 03:42:26;;;;;;;17.13;10.10;;;;;;;2.37;69.37;95481.75;5008271;28;20187;-69
2022/11/26 03:44:51;;;;;;;14.97;11.43;;;;;;;2.38;69.15;95481.69;5004622;28;20206;-69
2022/11/26 03:47:17;;;;;;;12.90;10.67;;;;;;;2.39;69.08;95485.94;5002844;28;20194;-68
2022/11/26 03:49:42;;;;;;;16.37;11.20;;;;;;;2.39;69.03;95491.13;5008100;28;20195;-68
2022/11/26 03:52:07;;;;;;;16.33;11.63;;;;;;;2.49;68.88;95491.41;5005171;28;20211;-68
2022/11/26 03:54:33;;;;;;;17.10;10.63;;;;;;;2.33;69.14;95495.84;5007553;28;20190;-69
2022/11/26 03:56:58;;;;;;;14.07;11.27;;;;;;;2.32;69.54;95501.94;5005898;28;20201;-69
2022/11/26 03:59:24;;;;;;;13.80;11.10;;;;;;;2.17;69.72;95495.91;5016994;28;20298;-69
2022/11/26 04:01:49;;;;;;;12.73;10.53;;;;;;;2.24;69.82;95507.59;5003280;28;20277;-69
2022/11/26 04:04:15;;;;;;;13.97;10.97;;;;;;;2.30;69.85;95503.78;5008834;28;20191;-69
2022/11/26 04:06:40;;;;;;;13.90;11.27;;;;;;;2.36;69.52;95506.03;5003026;28;20279;-69
2022/11/26 04:09:06;;;;;;;15.87;13.00;;;;;;;2.38;69.63;95506.81;5003692;28;20195;-69
2022/11/26 04:11:31;;;;;;;15.63;13.10;;;;;;;2.45;70.13;95512.44;5007973;28;20201;-68
2022/11/26 04:13:57;;;;;;;13.53;12.00;;;;;;;2.37;70.34;95521.50;5021593;28;20221;-68
2022/11/26 04:16:22;;;;;;;18.67;13.43;;;;;;;2.48;70.15;95528.66;4998600;28;20279;-69
2022/11/26 04:18:47;;;;;;;17.90;12.70;;;;;;;2.47;70.75;95526.19;5007044;28;20269;-68
2022/11/26 04:21:13;;;;;;;14.53;12.27;;;;;;;2.58;70.63;95527.22;5008458;28;20203;-69
2022/11/26 04:23:38;;;;;;;14.77;13.10;;;;;;;2.56;70.89;95518.66;5005022;28;20192;-68
2022/11/26 04:26:04;;;;;;;16.03;13.67;;;;;;;2.51;70.93;95531.06;5003429;28;20215;-68
2022/11/26 04:28:30;;;;;;;15.07;13.17;;;;;;;2.61;70.83;95542.59;5004796;28;20187;-69
2022/11/26 04:30:55;;;;;;;15.80;13.53;;;;;;;2.49;71.46;95530.34;4999734;28;20230;-69
2022/11/26 04:33:21;;;;;;;16.20;13.33;;;;;;;2.56;71.56;95542.03;5002879;28;20198;-68
2022/11/26 04:35:46;;;;;;;18.13;13.13;;;;;;;2.53;71.67;95538.78;5027855;28;20174;-69
2022/11/26 04:38:12;;;;;;;15.07;12.53;;;;;;;2.41;71.65;95541.19;5025889;28;20239;-70
2022/11/26 04:40:37;;;;;;;15.87;12.70;;;;;;;2.42;71.71;95552.41;5031699;28;20189;-70
2022/11/26 04:43:02;;;;;;;17.20;13.37;;;;;;;2.32;71.45;95546.06;5027208;28;20196;-67
2022/11/26 04:45:28;;;;;;;15.13;13.03;;;;;;;2.44;71.64;95563.53;5030044;28;20210;-69
2022/11/26 04:47:53;;;;;;;14.13;12.27;;;;;;;2.35;71.55;95554.53;5024392;28;20213;-68
2022/11/26 04:50:19;;;;;;;16.53;12.80;;;;;;;2.34;71.30;95560.63;5038624;28;20193;-68
2022/11/26 04:52:47;;;;;;;18.03;13.70;;;;;;;2.22;71.13;95561.34;5028982;28;20181;-69
2022/11/26 04:55:13;;;;;;;13.73;12.43;;;;;;;2.22;71.44;95558.75;5027173;28;20186;-68
2022/11/26 04:57:39;;;;;;;13.30;12.00;;;;;;;2.16;71.60;95570.28;5039733;28;20213;-68
2022/11/26 05:00:06;;;;;;;15.50;12.43;;;;;;;2.23;71.57;95577.75;5020117;28;20216;-69
2022/11/26 05:02:31;;;;;;;17.87;13.53;;;;;;;2.15;71.82;95580.75;5039802;28;20259;-68
2022/11/26 05:04:56;;;;;;;15.70;13.97;;;;;;;2.22;72.19;95579.50;5024987;28;20213;-68
2022/11/26 05:07:22;;;;;;;15.67;13.97;;;;;;;2.46;71.76;95571.22;5028900;28;20200;-68
2022/11/26 05:09:47;;;;;;;14.70;13.30;;;;;;;2.42;72.03;95578.34;5028245;28;20232;-68
2022/11/26 05:12:13;;;;;;;14.30;12.80;;;;;;;2.38;72.41;95577.69;5023430;28;20197;-68
2022/11/26 05:14:38;;;;;;;15.87;13.57;;;;;;;2.32;72.22;95587.59;5020868;28;20269;-68
2022/11/26 05:17:04;;;;;;;14.70;13.13;;;;;;;2.30;72.40;95589.41;5027060;28;20181;-69
2022/11/26 05:19:29;;;;;;;14.80;13.27;;;;;;;2.39;72.45;95594.94;5027916;28;20193;-69
2022/11/26 05:21:54;;;;;;;15.10;13.50;;;;;;;2.41;72.11;95590.50;5026533;28;20197;-68
2022/11/26 05:24:20;;;;;;;15.67;14.17;;;;;;;2.33;72.29;95592.69;5026741;28;20280;-70
2022/11/26 05:26:45;;;;;;;16.60;15.00;;;;;;;2.53;71.60;95591.53;5020655;28;20658;-70
2022/11/26 05:29:11;;;;;;;15.57;13.97;;;;;;;2.47;71.63;95594.50;5027847;28;20206;-69
2022/11/26 05:31:36;;;;;;;15.87;14.33;;;;;;;2.48;71.71;95592.72;5028582;28;20236;-68
2022/11/26 05:34:02;;;;;;;15.17;13.57;;;;;;;2.43;72.22;95593.84;5026973;28;20301;-68
2022/11/26 05:36:27;;;;;;;14.57;13.17;;;;;;;2.38;72.01;95597.63;5020835;28;20186;-69
2022/11/26 05:38:53;;;;;;;14.37;12.20;;;;;;;2.36;72.15;95602.06;5027680;28;20189;-69
2022/11/26 05:41:19;;;;;;;16.30;13.63;;;;;;;2.38;72.16;95606.25;5036914;28;20217;-69
2022/11/26 05:43:44;;;;;;;15.83;14.20;;;;;;;2.51;72.04;95614.16;5024870;28;20208;-70
2022/11/26 05:46:13;;;;;;;15.37;13.47;;;;;;;2.38;72.38;95608.03;5028059;28;20202;-69
2022/11/26 05:48:38;;;;;;;14.83;12.83;;;;;;;2.33;72.25;95607.44;5029288;28;20227;-69
2022/11/26 05:51:04;;;;;;;14.60;12.43;;;;;;;2.26;72.70;95608.69;5025205;28;20276;-69
2022/11/26 05:53:30;;;;;;;13.67;12.27;;;;;;;2.48;71.92;95603.13;5025452;28;20178;-69
2022/11/26 05:55:55;;;;;;;14.47;12.93;;;;;;;2.45;71.71;95611.09;5025612;28;20181;-69
2022/11/26 05:58:20;;;;;;;15.67;13.00;;;;;;;2.36;72.18;95612.44;5025211;28;20174;-69
2022/11/26 06:00:46;;;;;;;14.10;12.57;;;;;;;2.28;72.39;95614.66;5027240;28;20188;-69
2022/11/26 06:03:11;;;;;;;14.80;13.23;;;;;;;2.40;72.03;95621.72;5027446;28;20255;-69
2022/11/26 06:05:37;;;;;;;15.43;12.70;;;;;;;2.39;72.03;95614.88;5018454;28;20261;-70
2022/11/26 06:08:02;;;;;;;13.33;12.13;;;;;;;2.64;71.42;95616.88;5041379;28;20212;-70
2022/11/26 06:10:28;;;;;;;14.37;12.03;;;;;;;2.56;71.48;95617.31;5028525;28;20940;-70
2022/11/26 06:12:53;;;;;;;13.10;11.70;;;;;;;2.53;71.37;95619.25;5028998;28;20190;-69
2022/11/26 06:15:19;;;;;;;12.57;11.37;;;;;;;2.55;71.66;95630.41;5028319;28;20190;-70
2022/11/26 06:17:44;;;;;;;14.03;12.00;;;;;;;2.69;71.22;95625.25;5026933;28;20284;-70
2022/11/26 06:20:10;;;;;;;15.37;12.20;;;;;;;2.73;71.07;95631.94;5019839;28;20192;-69
2022/11/26 06:22:40;;;;;;;17.77;13.17;;;;;;;2.75;70.91;95626.63;5024033;28;20181;-69
2022/11/26 06:25:08;;;;;;;14.87;12.50;;;;;;;2.76;70.78;95629.16;5030182;28;20201;-69
2022/11/26 06:27:34;;;;;;;13.70;12.03;;;;;;;2.77;70.42;95623.03;5028606;28;20181;-69
2022/11/26 06:30:02;;;;;;;17.40;12.57;;;;;;;2.76;70.25;95623.97;5038825;28;20307;-69
2022/11/26 06:32:29;;;;;;;16.57;12.50;;;;;;;2.78;70.30;95626.47;5028617;28;20185;-69
2022/11/26 06:34:54;;;;;;;16.33;13.70;;;;;;;2.92;69.90;95626.50;5009064;28;20231;-69
2022/11/26 06:37:20;;;;;;;14.07;12.57;;;;;;;2.94;70.22;95631.59;5002136;28;20197;-69
2022/11/26 06:39:45;;;;;;;14.77;12.47;;;;;;;3.15;68.56;95634.69;4998621;28;20245;-68
2022/11/26 06:42:11;;;;;;;14.83;13.33;;;;;;;3.11;68.53;95634.03;5001520;28;20195;-71
2022/11/26 06:44:36;;;;;;;15.73;13.83;;;;;;;3.15;68.85;95634.69;5013786;28;20217;-67
2022/11/26 06:47:02;;;;;;;15.17;13.63;;;;;;;2.86;69.29;95637.22;4997773;28;20221;-66
2022/11/26 06:49:32;;;;;;;14.50;12.73;;;;;;;3.21;68.96;95639.53;5001273;28;20219;-69
2022/11/26 06:51:58;;;;;;;15.73;13.27;;;;;;;3.17;68.64;95638.03;5003081;28;20213;-70
2022/11/26 06:54:23;;;;;;;13.63;12.27;;;;;;;3.29;68.64;95637.31;5008923;28;20191;-70
2022/11/26 06:56:48;;;;;;;14.17;12.80;;;;;;;3.32;68.25;95642.31;4998146;28;20191;-69
2022/11/26 06:59:14;;;;;;;18.03;13.47;;;;;;;3.27;68.52;95631.38;5006255;28;20183;-69
2022/11/26 07:01:39;;;;;;;21.63;13.53;;;;;;;3.30;68.16;95641.56;5004930;28;20191;-70
2022/11/26 07:04:05;;;;;;;15.07;12.87;;;;;;;3.38;67.99;95635.91;5002631;28;20226;-70
2022/11/26 07:06:32;;;;;;;15.27;13.27;;;;;;;3.60;67.39;95648.44;5002661;28;20219;-70
2022/11/26 07:09:03;;;;;;;15.03;13.57;;;;;;;3.70;67.19;95652.16;5008315;28;20175;-71
2022/11/26 07:11:28;;;;;;;14.40;12.90;;;;;;;3.75;67.14;95650.09;4999150;28;20226;-70
2022/11/26 07:13:54;;;;;;;15.00;13.37;;;;;;;3.75;67.62;95647.50;4999028;28;20174;-71
2022/11/26 07:16:20;;;;;;;15.93;13.50;;;;;;;3.92;66.93;95644.69;5008039;28;20207;-71
2022/11/26 07:18:50;;;;;;;15.10;13.57;;;;;;;3.61;67.69;95647.50;5008674;28;20214;-69
2022/11/26 07:21:17;;;;;;;15.70;13.30;;;;;;;3.59;68.82;95650.22;5013169;28;20191;-68
2022/11/26 07:23:42;;;;;;;14.93;13.33;;;;;;;3.81;68.13;95647.13;5001189;28;20176;-70
2022/11/26 07:26:08;;;;;;;16.90;14.00;;;;;;;3.94;67.52;95650.63;5017386;28;20265;-70
2022/11/26 07:28:35;;;;;;;16.40;13.87;;;;;;;4.06;66.70;95656.00;5003596;28;20273;-70
2022/11/26 07:31:06;;;;;;;14.57;13.03;;;;;;;4.16;66.42;95654.47;5002820;28;20188;-70
2022/11/26 07:33:32;;;;;;;14.10;12.70;;;;;;;4.25;65.85;95659.13;5002074;28;20238;-71
2022/11/26 07:35:59;;;;;;;16.03;14.20;;;;;;;4.21;66.34;95657.63;5028048;28;20175;-71
2022/11/26 07:38:26;;;;;;;19.80;14.70;;;;;;;4.23;66.54;95657.53;5026747;28;20187;-71
2022/11/26 07:40:51;;;;;;;15.80;14.07;;;;;;;4.26;66.10;95652.97;5029180;28;20194;-71
2022/11/26 07:43:17;;;;;;;15.37;13.87;;;;;;;4.27;66.29;95662.44;5031494;28;20194;-70
2022/11/26 07:45:42;;;;;;;15.10;13.70;;;;;;;4.27;66.07;95653.81;5029327;28;20232;-70
2022/11/26 07:48:08;;;;;;;17.13;13.37;;;;;;;4.33;65.75;95661.22;5032777;28;20998;-69
2022/11/26 07:50:33;;;;;;;14.67;13.17;;;;;;;4.49;65.17;95666.28;5027769;28;20213;-69
2022/11/26 07:52:59;;;;;;;15.60;14.00;;;;;;;4.37;65.64;95671.34;5031765;28;20212;-71
2022/11/26 07:55:24;;;;;;;16.90;15.30;;;;;;;4.47;65.95;95673.38;5030318;28;20174;-70
2022/11/26 07:57:49;;;;;;;17.70;15.80;;;;;;;4.51;65.42;95674.81;5027361;28;20189;-70
2022/11/26 08:00:16;;;;;;;14.00;11.67;;;;;;;4.57;64.67;95667.47;5021941;28;20192;-68
2022/11/26 08:02:41;;;;;;;12.80;11.57;;;;;;;4.70;64.10;95683.13;5028046;28;20182;-69
2022/11/26 08:05:06;;;;;;;14.53;12.00;;;;;;;4.58;64.71;95681.31;5028549;28;20210;-68
2022/11/26 08:07:34;;;;;;;14.63;13.13;;;;;;;4.64;64.67;95681.75;5041556;28;20186;-68
2022/11/26 08:10:01;;;;;;;14.80;13.40;;;;;;;4.82;64.00;95687.53;5030095;28;20220;-70
2022/11/26 08:12:26;;;;;;;17.03;14.27;;;;;;;4.75;64.52;95681.06;5032047;28;20201;-68
2022/11/26 08:14:51;;;;;;;15.63;13.90;;;;;;;4.88;64.01;95673.28;5028094;28;20184;-69
2022/11/26 08:17:17;;;;;;;15.47;14.00;;;;;;;5.05;63.60;95667.78;5038505;28;20289;-71
2022/11/26 08:19:42;;;;;;;13.77;12.13;;;;;;;5.22;62.54;95674.47;5045570;28;20193;-70
2022/11/26 08:22:08;;;;;;;15.60;14.00;;;;;;;5.23;62.15;95676.13;5037749;28;20197;-71
2022/11/26 08:24:34;;;;;;;16.30;14.80;;;;;;;5.22;62.57;95671.88;5030621;28;20249;-69
2022/11/26 08:27:00;;;;;;;16.13;14.43;;;;;;;5.26;62.50;95675.09;5028152;28;20252;-70
2022/11/26 08:29:25;;;;;;;17.67;15.50;;;;;;;5.28;62.47;95681.03;5044670;28;20209;-70
2022/11/26 08:31:51;;;;;;;16.33;14.70;;;;;;;5.25;62.36;95676.88;5028034;28;20181;-69
2022/11/26 08:34:17;;;;;;;16.40;14.27;;;;;;;5.26;62.61;95678.53;5043054;28;20256;-70
2022/11/26 08:36:43;;;;;;;14.83;13.30;;;;;;;5.25;61.92;95678.66;5030234;28;20242;-70
2022/11/26 08:39:13;;;;;;;14.53;13.13;;;;;;;5.07;62.19;95678.09;5019157;28;20438;-72
2022/11/26 08:41:38;;;;;;;14.43;13.03;;;;;;;5.15;62.10;95680.19;5030348;28;20193;-73
2022/11/26 08:44:04;;;;;;;14.70;13.20;;;;;;;5.21;61.77;95680.63;5020386;28;20182;-71
2022/11/26 08:46:29;;;;;;;14.87;13.50;;;;;;;5.23;61.79;95678.75;5022252;28;20405;-72
2022/11/26 08:48:55;;;;;;;16.30;14.60;;;;;;;5.33;61.27;95688.56;5024186;28;20312;-71
2022/11/26 08:51:21;;;;;;;16.17;14.47;;;;;;;5.44;61.57;95686.91;5024897;28;20216;-71
2022/11/26 08:53:47;;;;;;;16.00;14.50;;;;;;;5.53;60.96;95693.25;5020756;28;20185;-71
2022/11/26 08:56:12;;;;;;;15.47;13.07;;;;;;;5.71;60.33;95689.38;5027501;28;20328;-73
2022/11/26 08:58:41;;;;;;;14.70;13.07;;;;;;;5.92;59.20;95686.25;5025908;28;20276;-72
2022/11/26 09:01:14;;;;;;;13.87;12.50;;;;;;;5.89;59.39;95687.28;5024276;28;20646;-71
2022/11/26 09:03:40;;;;;;;16.77;12.77;;;;;;;6.13;58.41;95686.56;5046764;28;20215;-71
2022/11/26 09:06:06;;;;;;;14.50;13.07;;;;;;;6.48;57.92;95688.44;5022733;28;20197;-71
2022/11/26 09:08:43;;;;;;;14.73;13.33;;;;;;;6.53;57.93;95694.16;5017741;28;20182;-68
2022/11/26 09:11:10;;;;;;;14.77;13.27;;;;;;;6.55;57.11;95685.28;5024302;28;20209;-68
2022/11/26 09:13:36;;;;;;;16.43;14.67;;;;;;;6.70;56.94;95687.72;5019921;28;20213;-70
2022/11/26 09:16:01;;;;;;;16.20;14.67;;;;;;;6.69;57.32;95689.50;5022500;28;20247;-69
2022/11/26 09:18:27;;;;;;;14.03;12.63;;;;;;;6.59;57.40;95681.47;5019977;28;20256;-70
2022/11/26 09:20:52;;;;;;;16.70;14.97;;;;;;;6.57;56.74;95678.13;5019611;28;20625;-69
2022/11/26 09:23:17;;;;;;;16.77;14.73;;;;;;;6.56;57.31;95680.88;5025119;28;20206;-68
2022/11/26 09:25:43;;;;;;;16.90;15.13;;;;;;;6.62;57.08;95685.66;5026985;28;20201;-70
2022/11/26 09:28:08;;;;;;;17.53;15.83;;;;;;;6.56;57.24;95681.69;5042787;28;20222;-70
2022/11/26 09:30:34;;;;;;;19.43;17.33;;;;;;;6.65;56.92;95679.38;5040700;28;20196;-69
2022/11/26 09:32:59;;;;;;;17.23;15.43;;;;;;;6.13;58.20;95676.09;5025197;28;20301;-66
2022/11/26 09:35:25;;;;;;;17.33;15.50;;;;;;;5.91;59.80;95680.19;5004977;28;20218;-67
2022/11/26 09:37:50;;;;;;;17.67;15.77;;;;;;;6.50;57.87;95678.72;5001391;28;20289;-68
2022/11/26 09:40:18;;;;;;;18.47;16.50;;;;;;;6.67;57.07;95680.91;5000684;28;20211;-71
2022/11/26 09:43:10;;;;;;;16.77;15.03;;;;;;;6.68;56.39;95676.53;5002907;28;20212;-67
2022/11/26 09:45:48;;;;;;;15.93;14.20;;;;;;;6.82;56.30;95673.75;5003345;28;20286;-68
2022/11/26 09:48:18;;;;;;;16.50;14.80;;;;;;;6.90;56.33;95663.56;5001442;28;20226;-69
2022/11/26 09:50:46;;;;;;;16.10;14.50;;;;;;;6.25;57.29;95663.94;5001812;28;20218;-69
2022/11/26 09:53:18;;;;;;;16.73;14.97;;;;;;;5.88;59.10;95663.91;4998429;28;20206;-69
2022/11/26 09:55:48;;;;;;;16.70;14.93;;;;;;;6.27;58.28;95669.91;4999741;28;20214;-70
2022/11/26 09:58:20;;;;;;;14.67;13.17;;;;;;;6.63;56.19;95659.41;5000032;28;20191;-69
2022/11/26 10:00:48;;;;;;;13.50;12.20;;;;;;;6.91;55.05;95660.00;5004210;28;20237;-69
2022/11/26 10:03:27;;;;;;;12.83;11.63;;;;;;;6.87;54.95;95648.13;5009938;28;20432;-68
2022/11/26 10:06:07;;;;;;;13.93;12.33;;;;;;;6.94;55.60;95638.84;5006439;28;20547;-68
2022/11/26 10:08:48;;;;;;;14.97;10.93;;;;;;;7.29;54.42;95638.81;4996720;28;20210;-66
2022/11/26 10:11:31;;;;;;;12.33;10.83;;;;;;;7.38;54.19;95645.16;4992255;28;20291;-69
2022/11/26 10:14:14;;;;;;;12.93;11.67;;;;;;;7.41;53.45;95631.00;5001889;28;20192;-69
2022/11/26 10:16:53;;;;;;;12.10;10.93;;;;;;;7.68;53.86;95641.94;4999803;28;20183;-68
2022/11/26 10:19:30;;;;;;;13.50;12.10;;;;;;;7.80;52.79;95634.09;5004167;28;20195;-68
2022/11/26 10:22:02;;;;;;;15.40;13.83;;;;;;;7.74;53.07;95638.03;5004941;28;20182;-70
2022/11/26 10:24:32;;;;;;;14.70;13.23;;;;;;;7.41;54.29;95631.81;5014812;28;20255;-70
2022/11/26 10:27:09;;;;;;;16.17;13.23;;;;;;;7.70;53.73;95632.19;5006278;28;20191;-68
2022/11/26 10:29:41;;;;;;;16.67;13.37;;;;;;;7.84;52.48;95628.50;5011298;28;20625;-68
2022/11/26 10:32:24;;;;;;;13.70;12.30;;;;;;;7.92;52.15;95615.63;5010975;28;20194;-68
2022/11/26 10:34:56;;;;;;;14.57;13.07;;;;;;;8.09;51.94;95618.72;5015401;28;20224;-69
2022/11/26 10:37:24;;;;;;;13.80;12.33;;;;;;;8.26;51.77;95618.22;5022003;28;20212;-69
2022/11/26 10:40:18;;;;;;;12.93;11.73;;;;;;;8.33;51.47;95626.41;5024933;28;20688;-68
2022/11/26 10:43:00;;;;;;;13.53;12.27;;;;;;;8.45;50.84;95620.22;5041670;28;20194;-69
2022/11/26 10:45:38;;;;;;;14.20;12.70;;;;;;;8.60;50.57;95621.56;5018349;28;20222;-68
2022/11/26 10:48:19;;;;;;;13.73;12.30;;;;;;;8.84;49.76;95616.09;5025192;28;20999;-68
2022/11/26 10:51:10;;;;;;;14.00;12.70;;;;;;;8.97;49.21;95620.34;5041731;28;20213;-68
2022/11/26 10:53:56;;;;;;;14.53;12.40;;;;;;;8.93;49.75;95614.53;4961416;28;20227;-67
2022/11/26 10:56:45;;;;;;;18.83;13.03;;;;;;;8.91;50.17;95618.25;4953609;28;20188;-66
2022/11/26 10:59:35;;;;;;;12.13;10.93;;;;;;;9.00;49.92;95618.28;4966877;28;20207;-65
2022/11/26 11:02:14;;;;;;;12.47;11.27;;;;;;;8.59;49.22;95619.09;4965809;28;20188;-69
2022/11/26 11:04:44;;;;;;;12.87;11.50;;;;;;;9.10;47.91;95621.00;4965351;28;20223;-69
2022/11/26 11:07:35;;;;;;;12.70;11.40;;;;;;;9.27;47.33;95620.44;4950241;28;20188;-68
2022/11/26 11:10:07;;;;;;;12.87;11.40;;;;;;;9.44;47.38;95623.44;4965410;28;20222;-69
2022/11/26 11:12:33;;;;;;;12.50;11.10;;;;;;;9.53;46.61;95619.19;4970976;28;20242;-69
2022/11/26 11:15:20;;;;;;;12.70;11.03;;;;;;;9.67;46.00;95619.66;4958170;28;20191;-71
2022/11/26 11:18:13;;;;;;;12.23;11.03;;;;;;;9.53;46.28;95616.56;4916047;29;20201;-69
2022/11/26 11:20:50;;;;;;;12.80;11.40;;;;;;;9.91;45.76;95629.00;4935907;29;20293;-70
2022/11/26 11:23:20;;;;;;;13.73;12.10;;;;;;;9.94;45.75;95618.22;4914487;29;20229;-69
2022/11/26 11:26:05;;;;;;;13.17;11.87;;;;;;;9.93;45.63;95619.22;4919778;29;20208;-70
2022/11/26 11:28:33;;;;;;;13.37;11.77;;;;;;;10.24;44.72;95611.28;4933484;29;20271;-69
2022/11/26 11:31:22;;;;;;;13.50;12.10;;;;;;;10.31;44.30;95615.88;4952957;28;20283;-70
2022/11/26 11:33:49;;;;;;;13.67;12.37;;;;;;;10.33;44.26;95613.13;4934019;29;20211;-70
2022/11/26 11:36:26;;;;;;;14.13;12.47;;;;;;;10.50;43.75;95615.06;4934469;29;20224;-70